Terminal Aerodrome Forecast
Issued by NWS Sioux Falls, SD

Home | Current Version | Previous Version | Text Only | Print | Product List | Glossary On
Versions: 1 2 3 4 5 6 7 8 9 10 11 12 13 14 15 16 17
000
FTUS43 KFSD 251143
TAFFSD
TAF
KFSD 251143Z 2512/2612 16014KT P6SM FEW250 WS020/21040KT
     FM251400 18013G21KT P6SM FEW200
     FM260200 15007KT P6SM BKN150
     FM260400 14005KT P6SM VCTS SCT025 OVC060CB
     FM260600 11008KT 4SM SHRA VCTS OVC035CB=

USA.gov is the U.S. government's official web portal to all federal, state and local government web resources and services.